.
WxDataArchive / Data Records for 2008-09-18
2008-09-17 September 2008 2008-09-19

Data Records for Thursday, 18 September 2008

Time	Temp	Chill	HIndex	Humid	Dewpt	 Wind 	HiWind	WindDir	Rain 	Barom 
-----	----	-----	------	-----	-----	------	------	-------	-----	----- 
00:00	61.5	61.5	61.5	88	57.9	0	0	---	0.00	30.148 
00:05	61.3	61.3	61.3	88	57.7	0	0	---	0.00	30.147 
00:10	61.2	61.2	61.2	89	57.9	0	0	---	0.00	30.147 
00:15	61.0	61.0	61.0	89	57.7	0	0	---	0.00	30.148 
00:20	60.9	60.9	60.9	89	57.6	0	0	---	0.00	30.148 
00:25	60.7	60.7	60.7	90	57.7	0	0	---	0.00	30.146 
00:30	60.4	60.4	60.4	90	57.4	0	0	---	0.00	30.145 
00:35	60.2	60.2	60.2	90	57.3	0	0	---	0.00	30.147 
00:40	60.1	60.1	60.1	91	57.5	0	0	---	0.00	30.149 
00:45	60.1	60.1	60.1	92	57.8	0	0	---	0.00	30.151 
00:50	59.9	59.9	59.9	92	57.6	0	0	---	0.00	30.151 
00:55	59.9	59.9	59.9	92	57.6	0	0	---	0.00	30.153 
01:00	59.8	59.8	59.8	92	57.5	0	0	---	0.00	30.155 
01:05	59.8	59.8	59.8	92	57.5	0	0	---	0.00	30.156 
01:10	59.6	59.6	59.6	93	57.6	0	0	---	0.00	30.158 
01:15	59.5	59.5	59.5	93	57.5	0	0	---	0.00	30.160 
01:20	59.5	59.5	59.5	93	57.5	0	0	---	0.00	30.160 
01:25	59.3	59.3	59.3	93	57.3	0	0	---	0.00	30.160 
01:30	59.2	59.2	59.2	93	57.2	0	0	---	0.00	30.161 
01:35	59.2	59.2	59.2	93	57.2	0	0	---	0.00	30.162 
01:40	59.0	59.0	59.0	93	57.0	0	0	---	0.00	30.163 
01:45	59.0	59.0	59.0	94	57.3	0	0	---	0.00	30.162 
01:50	59.2	59.2	59.2	94	57.5	0	1	292	0.00	30.162 
01:55	59.3	59.3	59.3	94	57.6	0	1	292	0.00	30.162 
02:00	59.3	59.3	59.3	94	57.6	0	1	292	0.00	30.162 
02:05	59.5	59.5	59.5	94	57.8	0	1	292	0.00	30.162 
02:10	59.5	59.5	59.5	94	57.8	0	2	292	0.00	30.164 
02:15	59.5	59.5	59.5	94	57.8	0	2	292	0.00	30.167 
02:20	59.3	59.3	59.3	94	57.6	0	2	112	0.00	30.168 
02:25	59.3	59.3	59.3	93	57.3	0	1	112	0.00	30.169 
02:30	59.2	59.2	59.2	93	57.2	0	4	112	0.00	30.171 
02:35	59.0	59.0	59.0	92	56.7	0	3	112	0.00	30.173 
02:40	58.7	58.7	58.7	90	55.8	1	4	112	0.00	30.174 
02:45	58.9	58.9	58.9	89	55.7	0	2	112	0.00	30.175 
02:50	58.7	58.7	58.7	88	55.2	0	3	112	0.00	30.177 
02:55	58.7	58.7	58.7	87	54.8	0	3	112	0.00	30.177 
03:00	58.6	58.6	58.6	86	54.4	0	2	112	0.00	30.177 
03:05	58.4	58.4	58.4	86	54.2	0	1	112	0.00	30.178 
03:10	58.4	58.4	58.4	85	53.9	0	1	112	0.00	30.180 
03:15	58.3	58.3	58.3	85	53.8	0	1	112	0.00	30.184 
03:20	58.1	58.1	58.1	84	53.3	0	4	112	0.00	30.186 
03:25	58.1	58.1	58.1	84	53.3	0	1	112	0.00	30.187 
03:30	58.0	58.0	58.0	84	53.2	0	1	112	0.00	30.187 
03:35	57.8	57.8	57.8	84	53.0	0	1	112	0.00	30.188 
03:40	57.8	57.8	57.8	84	53.0	0	3	112	0.00	30.189 
03:45	57.8	57.8	57.8	84	53.0	0	3	68	0.00	30.192 
03:50	58.0	58.0	58.0	84	53.2	0	1	68	0.00	30.194 
03:55	58.1	58.1	58.1	84	53.3	0	1	68	0.00	30.194 
04:00	58.1	58.1	58.1	84	53.3	0	2	68	0.00	30.194 
04:05	58.3	58.3	58.3	83	53.2	0	2	68	0.00	30.195 
04:10	58.4	58.4	58.4	83	53.3	0	3	68	0.00	30.195 
04:15	58.6	58.6	58.6	82	53.1	0	2	90	0.00	30.193 
04:20	58.6	58.6	58.6	82	53.1	1	3	90	0.00	30.193 
04:25	58.6	58.6	58.6	81	52.8	1	5	90	0.00	30.194 
04:30	58.6	58.6	58.6	81	52.8	1	4	112	0.00	30.194 
04:35	58.6	58.6	58.6	81	52.8	0	2	112	0.00	30.195 
04:40	58.4	58.4	58.4	81	52.6	1	3	112	0.00	30.196 
04:45	58.4	58.4	58.4	81	52.6	0	2	112	0.00	30.197 
04:50	58.3	58.3	58.3	81	52.5	0	2	112	0.00	30.198 
04:55	58.1	58.1	58.1	81	52.3	0	3	112	0.00	30.201 
05:00	58.0	58.0	58.0	82	52.5	0	2	112	0.00	30.205 
05:05	57.6	57.6	57.6	82	52.1	0	1	112	0.00	30.208 
05:10	57.5	57.5	57.5	82	52.0	0	3	68	0.00	30.208 
05:15	57.5	57.5	57.5	82	52.0	0	2	90	0.00	30.209 
05:20	57.3	57.3	57.3	83	52.2	0	3	90	0.00	30.210 
05:25	57.2	57.2	57.2	83	52.1	0	1	90	0.00	30.212 
05:30	57.0	57.0	57.0	83	51.9	0	3	90	0.00	30.212 
05:35	56.9	56.9	56.9	84	52.1	0	1	90	0.00	30.213 
05:40	56.7	56.7	56.7	84	51.9	0	1	90	0.00	30.214 
05:45	56.7	56.7	56.7	84	51.9	0	1	90	0.00	30.219 
05:50	56.6	56.6	56.6	84	51.8	0	1	90	0.00	30.220 
05:55	56.5	56.5	56.5	84	51.7	0	1	90	0.00	30.221 
06:00	56.3	56.3	56.3	85	51.8	0	0	---	0.00	30.223 
06:05	56.2	56.2	56.2	85	51.7	0	0	---	0.00	30.229 
06:10	55.9	55.9	55.9	85	51.5	0	1	90	0.00	30.230 
06:15	55.7	55.7	55.7	86	51.6	0	0	---	0.00	30.232 
06:20	55.6	55.6	55.6	86	51.5	0	0	---	0.00	30.232 
06:25	55.4	55.4	55.4	87	51.6	0	0	---	0.00	30.233 
06:30	55.3	55.3	55.3	87	51.5	0	0	---	0.00	30.236 
06:35	55.1	55.1	55.1	88	51.6	0	1	90	0.00	30.239 
06:40	55.0	55.0	55.0	88	51.5	0	0	---	0.00	30.244 
06:45	55.0	55.0	55.0	88	51.5	0	0	---	0.00	30.245 
06:50	54.8	54.8	54.8	89	51.6	0	0	---	0.00	30.246 
06:55	54.8	54.8	54.8	89	51.6	0	0	---	0.00	30.247 
07:00	54.8	54.8	54.8	89	51.6	0	0	---	0.00	30.248 
07:05	55.1	55.1	55.1	90	52.2	0	0	---	0.00	30.253 
07:10	55.3	55.3	55.3	90	52.4	0	0	---	0.00	30.254 
07:15	55.7	55.7	55.7	90	52.8	0	1	90	0.00	30.254 
07:20	56.2	56.2	56.2	88	52.7	0	1	90	0.00	30.256 
07:25	56.7	56.7	56.7	87	52.9	0	2	90	0.00	30.258 
07:30	57.2	57.2	57.2	85	52.7	0	2	90	0.00	30.262 
07:35	57.6	57.6	57.6	84	52.8	0	2	90	0.00	30.261 
07:40	58.0	58.0	58.0	84	53.2	1	3	112	0.00	30.264 
07:45	58.1	58.1	58.1	83	53.0	1	3	112	0.00	30.266 
07:50	58.4	58.4	58.4	83	53.3	1	3	112	0.00	30.266 
07:55	58.6	58.6	58.6	83	53.4	1	3	112	0.00	30.269 
08:00	58.9	58.9	58.9	83	53.7	1	5	90	0.00	30.270 
08:05	59.2	59.2	59.2	82	53.7	2	5	90	0.00	30.273 
08:10	59.3	59.3	59.3	82	53.8	1	3	90	0.00	30.276 
08:15	59.8	59.8	59.8	81	54.0	2	7	90	0.00	30.275 
08:20	60.1	60.1	60.1	80	53.9	3	10	112	0.00	30.275 
08:25	60.4	60.4	60.4	80	54.2	2	6	90	0.00	30.276 
08:30	60.7	60.7	60.7	78	53.8	3	8	90	0.00	30.278 
08:35	60.9	60.9	60.9	79	54.3	2	8	90	0.00	30.279 
08:40	61.2	61.2	61.2	78	54.3	3	9	112	0.00	30.280 
08:45	61.5	61.5	61.5	77	54.2	3	7	90	0.00	30.280 
08:50	62.1	62.1	62.1	77	54.8	2	5	90	0.00	30.280 
08:55	62.7	62.7	62.7	76	55.0	1	3	112	0.00	30.281 
09:00	63.4	63.4	63.4	73	54.6	3	6	112	0.00	30.284 
09:05	63.5	63.5	63.5	73	54.7	3	6	90	0.00	30.288 
09:10	63.9	63.9	63.9	74	55.4	2	7	112	0.00	30.292 
09:15	64.0	64.0	64.0	71	54.4	4	8	90	0.00	30.293 
09:20	64.2	64.2	64.2	70	54.2	4	7	90	0.00	30.294 
09:25	64.5	64.5	64.5	69	54.1	3	7	90	0.00	30.293 
09:30	65.0	65.0	65.0	68	54.2	3	7	90	0.00	30.293 
09:35	65.3	65.3	65.3	65	53.2	3	10	90	0.00	30.294 
09:40	65.8	65.8	65.8	66	54.1	3	5	112	0.00	30.294 
09:45	66.3	66.3	66.3	64	53.7	3	7	90	0.00	30.294 
09:50	66.4	66.4	66.4	63	53.4	3	8	90	0.00	30.295 
09:55	66.8	66.8	66.8	60	52.5	3	7	112	0.00	30.295 
10:00	66.9	66.9	66.9	61	53.0	3	7	112	0.00	30.296 
10:05	67.1	67.1	67.1	61	53.2	3	6	90	0.00	30.297 
10:10	67.3	67.3	67.3	58	52.0	3	9	90	0.00	30.298 
10:15	67.4	67.4	67.4	59	52.6	3	7	90	0.00	30.297 
10:20	67.6	67.6	67.6	58	52.3	4	7	90	0.00	30.299 
10:25	67.8	67.8	67.8	57	52.0	4	10	90	0.00	30.298 
10:30	67.9	67.9	67.9	55	51.1	4	9	90	0.00	30.299 
10:35	68.1	68.1	68.1	54	50.8	4	12	90	0.00	30.302 
10:40	68.4	68.4	68.4	54	51.1	3	6	68	0.00	30.301 
10:45	69.1	69.1	69.1	56	52.7	2	5	112	0.00	30.301 
10:50	69.4	69.4	69.4	50	49.9	3	10	112	0.00	30.302 
10:55	69.6	69.6	69.6	50	50.1	3	6	90	0.00	30.300 
11:00	69.8	69.8	69.8	50	50.3	2	4	90	0.00	30.298 
11:05	69.9	69.9	69.9	49	49.9	4	10	90	0.00	30.297 
11:10	70.1	70.1	70.1	50	50.6	3	9	90	0.00	30.298 
11:15	70.6	70.6	70.6	47	49.4	2	6	90	0.00	30.296 
11:20	70.9	70.9	70.9	48	50.2	2	6	90	0.00	30.298 
11:25	71.1	71.1	71.1	45	48.7	3	9	90	0.00	30.297 
11:30	70.9	70.9	70.9	45	48.5	3	12	112	0.00	30.298 
11:35	71.1	71.1	71.1	48	50.4	2	6	90	0.00	30.298 
11:40	71.5	71.5	71.5	47	50.2	3	7	112	0.00	30.297 
11:45	71.6	71.6	71.6	41	46.6	3	5	90	0.00	30.293 
11:50	71.6	71.6	71.6	42	47.3	4	9	90	0.00	30.294 
11:55	71.5	71.5	71.5	44	48.4	3	6	90	0.00	30.291 
12:00	71.6	71.6	71.6	44	48.5	3	6	90	0.00	30.291 
12:05	71.8	71.8	71.8	47	50.5	2	6	112	0.00	30.291 
12:10	72.0	72.0	72.0	42	47.6	3	7	90	0.00	30.291 
12:15	72.0	72.0	72.0	44	48.9	2	6	90	0.00	30.291 
12:20	72.3	72.3	72.3	42	47.9	2	7	90	0.00	30.291 
12:25	72.1	72.1	72.1	43	48.4	4	9	90	0.00	30.291 
12:30	72.1	72.1	72.1	46	50.2	2	6	68	0.00	30.287 
12:35	72.5	72.5	72.5	43	48.7	3	6	90	0.00	30.286 
12:40	72.7	72.7	72.7	43	48.9	2	6	90	0.00	30.285 
12:45	72.7	72.7	72.7	45	50.1	3	9	90	0.00	30.282 
12:50	72.3	72.3	72.3	44	49.2	4	9	90	0.00	30.281 
12:55	72.1	72.1	72.1	43	48.4	3	8	90	0.00	30.280 
13:00	72.3	72.3	72.3	43	48.5	3	6	112	0.00	30.279 
13:05	72.5	72.5	72.5	46	50.5	2	5	90	0.00	30.277 
13:10	72.7	72.7	72.7	43	48.9	2	7	112	0.00	30.277 
13:15	72.5	72.5	72.5	43	48.7	4	7	112	0.00	30.277 
13:20	72.7	72.7	72.7	43	48.9	2	7	90	0.00	30.276 
13:25	72.8	72.8	72.8	44	49.6	3	10	112	0.00	30.275 
13:30	72.7	72.7	72.7	45	50.1	2	6	112	0.00	30.270 
13:35	72.7	72.7	72.7	47	51.3	1	4	90	0.00	30.268 
13:40	72.8	72.8	72.8	45	50.2	3	6	90	0.00	30.266 
13:45	73.0	73.0	73.0	44	49.8	2	6	90	0.00	30.266 
13:50	73.2	73.2	73.2	45	50.6	2	4	112	0.00	30.266 
13:55	73.3	73.3	73.3	44	50.1	3	9	135	0.00	30.265 
14:00	73.2	73.2	73.2	46	51.2	1	6	90	0.00	30.263 
14:05	73.3	73.3	73.3	45	50.7	2	5	112	0.00	30.263 
14:10	73.5	73.5	73.5	41	48.3	2	7	112	0.00	30.263 
14:15	73.3	73.3	73.3	42	48.8	2	4	90	0.00	30.261 
14:20	73.3	73.3	73.3	41	48.2	3	5	90	0.00	30.261 
14:25	73.2	73.2	73.2	42	48.7	2	4	112	0.00	30.261 
14:30	73.3	73.3	73.3	42	48.8	1	4	90	0.00	30.261 
14:35	73.5	73.5	73.5	41	48.3	2	4	90	0.00	30.261 
14:40	73.3	73.3	73.3	40	47.5	2	6	112	0.00	30.260 
14:45	73.3	73.3	73.3	43	49.4	2	6	112	0.00	30.260 
14:50	73.5	73.5	73.5	40	47.7	2	6	90	0.00	30.259 
14:55	73.5	73.5	73.5	39	47.0	2	6	90	0.00	30.257 
15:00	73.5	73.5	73.5	44	50.2	1	5	90	0.00	30.253 
15:05	73.7	73.7	73.7	41	48.5	2	6	90	0.00	30.250 
15:10	73.7	73.7	73.7	39	47.2	1	3	90	0.00	30.251 
15:15	73.5	73.5	73.5	41	48.3	1	4	90	0.00	30.251 
15:20	73.3	73.3	73.3	38	46.1	3	9	90	0.00	30.252 
15:25	73.3	73.3	73.3	41	48.2	2	4	90	0.00	30.252 
15:30	73.3	73.3	73.3	38	46.1	2	4	90	0.00	30.251 
15:35	73.2	73.2	73.2	40	47.4	3	10	90	0.00	30.250 
15:40	73.0	73.0	73.0	41	47.9	1	7	90	0.00	30.250 
15:45	73.0	73.0	73.0	43	49.2	2	6	90	0.00	30.249 
15:50	73.0	73.0	73.0	39	46.6	1	5	90	0.00	30.248 
15:55	72.8	72.8	72.8	40	47.1	2	7	68	0.00	30.248 
16:00	72.7	72.7	72.7	38	45.6	3	10	90	0.00	30.248 
16:05	72.5	72.5	72.5	39	46.1	2	4	90	0.00	30.247 
16:10	72.5	72.5	72.5	42	48.1	2	5	90	0.00	30.247 
16:15	72.5	72.5	72.5	39	46.1	3	5	112	0.00	30.247 
16:20	72.3	72.3	72.3	34	42.3	3	5	90	0.00	30.247 
16:25	72.1	72.1	72.1	39	45.8	2	6	90	0.00	30.247 
16:30	72.1	72.1	72.1	41	47.1	1	5	90	0.00	30.248 
16:35	72.1	72.1	72.1	41	47.1	2	6	112	0.00	30.248 
16:40	72.1	72.1	72.1	40	46.4	2	5	90	0.00	30.248 
16:45	72.0	72.0	72.0	39	45.7	2	7	90	0.00	30.248 
16:50	71.8	71.8	71.8	40	46.2	2	11	112	0.00	30.248 
16:55	71.6	71.6	71.6	42	47.3	2	5	112	0.00	30.249 
17:00	71.6	71.6	71.6	41	46.6	1	5	90	0.00	30.248 
17:05	71.5	71.5	71.5	41	46.5	2	4	90	0.00	30.250 
17:10	71.3	71.3	71.3	42	47.0	1	2	112	0.00	30.249 
17:15	71.1	71.1	71.1	42	46.8	1	4	112	0.00	30.251 
17:20	70.9	70.9	70.9	42	46.6	2	5	90	0.00	30.251 
17:25	70.8	70.8	70.8	42	46.6	1	4	112	0.00	30.251 
17:30	70.4	70.4	70.4	43	46.8	1	2	112	0.00	30.252 
17:35	70.3	70.3	70.3	43	46.7	1	5	90	0.00	30.251 
17:40	69.9	69.9	69.9	43	46.4	2	5	90	0.00	30.251 
17:45	69.8	69.8	69.8	44	46.9	2	4	90	0.00	30.251 
17:50	69.4	69.4	69.4	45	47.1	2	5	112	0.00	30.252 
17:55	69.1	69.1	69.1	46	47.4	1	3	90	0.00	30.251 
18:00	68.8	68.8	68.8	47	47.7	1	3	68	0.00	30.250 
18:05	68.4	68.4	68.4	48	47.9	1	3	68	0.00	30.250 
18:10	68.1	68.1	68.1	49	48.2	1	2	68	0.00	30.250 
18:15	67.9	67.9	67.9	49	48.0	1	2	68	0.00	30.250 
18:20	67.8	67.8	67.8	50	48.5	0	1	68	0.00	30.251 
18:25	67.4	67.4	67.4	51	48.6	0	1	68	0.00	30.251 
18:30	67.1	67.1	67.1	51	48.4	0	0	---	0.00	30.251 
18:35	66.8	66.8	66.8	52	48.6	0	1	68	0.00	30.251 
18:40	66.4	66.4	66.4	53	48.7	0	0	---	0.00	30.252 
18:45	66.0	66.0	66.0	54	48.9	0	0	---	0.00	30.253 
18:50	65.6	65.6	65.6	54	48.5	0	0	---	0.00	30.252 
18:55	65.3	65.3	65.3	55	48.7	0	0	---	0.00	30.250 
19:00	64.8	64.8	64.8	55	48.2	0	1	68	0.00	30.250 
19:05	64.5	64.5	64.5	56	48.4	0	2	68	0.00	30.248 
19:10	64.2	64.2	64.2	55	47.7	0	1	68	0.00	30.250 
19:15	64.2	64.2	64.2	55	47.7	0	2	68	0.00	30.250 
19:20	64.2	64.2	64.2	55	47.7	1	2	68	0.00	30.250 
19:25	64.2	64.2	64.2	55	47.7	0	3	90	0.00	30.251 
19:30	64.0	64.0	64.0	55	47.5	0	3	90	0.00	30.252 
19:35	63.7	63.7	63.7	55	47.2	0	1	90	0.00	30.253 
19:40	63.4	63.4	63.4	55	46.9	0	3	90	0.00	30.253 
19:45	63.2	63.2	63.2	55	46.8	1	3	90	0.00	30.254 
19:50	63.1	63.1	63.1	56	47.1	0	2	90	0.00	30.255 
19:55	62.9	62.9	62.9	56	47.0	0	2	90	0.00	30.254 
20:00	62.7	62.7	62.7	56	46.8	0	2	90	0.00	30.256 
20:05	62.4	62.4	62.4	57	47.0	0	2	90	0.00	30.253 
20:10	62.1	62.1	62.1	57	46.7	0	2	90	0.00	30.255 
20:15	62.0	62.0	62.0	57	46.6	0	2	90	0.00	30.256 
20:20	61.8	61.8	61.8	57	46.4	0	1	90	0.00	30.259 
20:25	61.6	61.6	61.6	59	47.1	0	1	90	0.00	30.262 
20:30	61.3	61.3	61.3	58	46.4	0	1	90	0.00	30.264 
20:35	61.0	61.0	61.0	59	46.6	0	1	90	0.00	30.265 
20:40	60.7	60.7	60.7	60	46.7	0	1	90	0.00	30.266 
20:45	60.7	60.7	60.7	59	46.3	0	1	90	0.00	30.266 
20:50	60.5	60.5	60.5	60	46.5	0	1	90	0.00	30.267 
20:55	60.4	60.4	60.4	60	46.4	0	1	90	0.00	30.269 
21:00	60.2	60.2	60.2	60	46.3	0	1	90	0.00	30.269 
21:05	60.1	60.1	60.1	61	46.6	0	1	90	0.00	30.266 
21:10	59.8	59.8	59.8	62	46.8	0	1	90	0.00	30.266 
21:15	59.6	59.6	59.6	61	46.1	0	2	90	0.00	30.267 
21:20	59.6	59.6	59.6	62	46.6	0	1	90	0.00	30.268 
21:25	59.5	59.5	59.5	62	46.5	0	1	90	0.00	30.269 
21:30	59.2	59.2	59.2	62	46.2	0	2	90	0.00	30.270 
21:35	59.2	59.2	59.2	63	46.6	0	1	90	0.00	30.271 
21:40	59.0	59.0	59.0	64	46.8	0	0	---	0.00	30.271 
21:45	58.7	58.7	58.7	64	46.6	0	1	90	0.00	30.272 
21:50	58.4	58.4	58.4	65	46.7	0	0	---	0.00	30.273 
21:55	58.1	58.1	58.1	65	46.4	0	0	---	0.00	30.273 
22:00	57.8	57.8	57.8	66	46.5	0	0	---	0.00	30.271 
22:05	57.3	57.3	57.3	67	46.4	0	0	---	0.00	30.268 
22:10	57.0	57.0	57.0	68	46.5	0	0	---	0.00	30.270 
22:15	56.6	56.6	56.6	69	46.5	0	0	---	0.00	30.272 
22:20	56.3	56.3	56.3	69	46.3	0	0	---	0.00	30.272 
22:25	56.0	56.0	56.0	70	46.4	0	0	---	0.00	30.271 
22:30	55.7	55.7	55.7	71	46.4	0	0	---	0.00	30.272 
22:35	55.6	55.6	55.6	71	46.3	0	0	---	0.00	30.270 
22:40	55.3	55.3	55.3	72	46.4	0	0	---	0.00	30.271 
22:45	55.0	55.0	55.0	73	46.5	0	0	---	0.00	30.271 
22:50	54.8	54.8	54.8	73	46.3	0	0	---	0.00	30.271 
22:55	54.5	54.5	54.5	74	46.4	0	0	---	0.00	30.274 
23:00	54.4	54.4	54.4	75	46.6	0	0	---	0.00	30.272 
23:05	54.1	54.1	54.1	76	46.7	0	0	---	0.00	30.269 
23:10	53.9	53.9	53.9	76	46.5	0	0	---	0.00	30.267 
23:15	53.6	53.6	53.6	77	46.6	0	0	---	0.00	30.267 
23:20	53.5	53.5	53.5	77	46.5	0	0	---	0.00	30.267 
23:25	53.2	53.2	53.2	78	46.5	0	0	---	0.00	30.269 
23:30	52.9	52.9	52.9	79	46.6	0	0	---	0.00	30.269 
23:35	52.8	52.8	52.8	80	46.8	0	0	---	0.00	30.269 
23:40	52.5	52.5	52.5	81	46.8	0	0	---	0.00	30.269 
23:45	52.3	52.3	52.3	81	46.6	0	0	---	0.00	30.269 
23:50	52.2	52.2	52.2	82	46.9	0	0	---	0.00	30.268 
23:55	52.0	52.0	52.0	82	46.7	0	0	---	0.00	30.269 

CoCoRaHS
IN-AL-39
A2 Web Hosting
Creative Commons License
GoDaddy
Look for:

loaded 2017-12-10 21:23:28 • last modified 2010-11-18 10:43:29
Privacy PolicyDisclaimer
• wx.awcolley.com is powered by PmWiki v.2002016 •
• all content (unless otherwise noted) © 2017 A W Colley